sensor_id;sensor_type;location;lat;lon;timestamp;temperature;humidity
1377;DHT22;682;52.502;13.488;2023-05-17T00:00:11;10.60;1.00
1377;DHT22;682;52.502;13.488;2023-05-17T00:02:38;10.60;1.00
1377;DHT22;682;52.502;13.488;2023-05-17T00:05:05;10.60;1.00
1377;DHT22;682;52.502;13.488;2023-05-17T00:07:32;10.50;1.00
1377;DHT22;682;52.502;13.488;2023-05-17T00:09:59;10.50;1.00
1377;DHT22;682;52.502;13.488;2023-05-17T00:12:26;10.40;1.00
1377;DHT22;682;52.502;13.488;2023-05-17T00:14:53;10.40;1.00
1377;DHT22;682;52.502;13.488;2023-05-17T00:17:21;10.30;1.00
1377;DHT22;682;52.502;13.488;2023-05-17T00:19:48;10.20;1.00
1377;DHT22;682;52.502;13.488;2023-05-17T00:22:15;10.20;1.00
1377;DHT22;682;52.502;13.488;2023-05-17T00:24:42;10.20;1.00
1377;DHT22;682;52.502;13.488;2023-05-17T00:27:09;10.10;1.00
1377;DHT22;682;52.502;13.488;2023-05-17T00:29:37;10.10;1.00
1377;DHT22;682;52.502;13.488;2023-05-17T00:32:07;10.00;1.00
1377;DHT22;682;52.502;13.488;2023-05-17T00:34:35;10.00;1.00
1377;DHT22;682;52.502;13.488;2023-05-17T00:37:02;10.00;1.00
1377;DHT22;682;52.502;13.488;2023-05-17T00:39:32;9.90;1.00
1377;DHT22;682;52.502;13.488;2023-05-17T00:41:59;9.90;1.00
1377;DHT22;682;52.502;13.488;2023-05-17T00:44:26;9.90;1.00
1377;DHT22;682;52.502;13.488;2023-05-17T00:46:53;9.90;1.00
1377;DHT22;682;52.502;13.488;2023-05-17T00:49:21;9.90;1.00
1377;DHT22;682;52.502;13.488;2023-05-17T00:51:50;9.80;1.00
1377;DHT22;682;52.502;13.488;2023-05-17T00:54:17;9.80;1.00
1377;DHT22;682;52.502;13.488;2023-05-17T00:56:45;9.80;1.00
1377;DHT22;682;52.502;13.488;2023-05-17T00:59:13;9.70;1.00
1377;DHT22;682;52.502;13.488;2023-05-17T01:01:41;9.70;1.00
1377;DHT22;682;52.502;13.488;2023-05-17T01:04:09;9.70;1.00
1377;DHT22;682;52.502;13.488;2023-05-17T01:06:36;9.70;1.00
1377;DHT22;682;52.502;13.488;2023-05-17T01:09:05;9.70;1.00
1377;DHT22;682;52.502;13.488;2023-05-17T01:11:38;9.70;1.00
1377;DHT22;682;52.502;13.488;2023-05-17T01:14:14;9.70;1.00
1377;DHT22;682;52.502;13.488;2023-05-17T01:16:54;9.70;1.00
1377;DHT22;682;52.502;13.488;2023-05-17T01:19:40;9.70;1.00
1377;DHT22;682;52.502;13.488;2023-05-17T01:22:16;9.60;1.00
1377;DHT22;682;52.502;13.488;2023-05-17T01:24:52;9.60;1.00
1377;DHT22;682;52.502;13.488;2023-05-17T01:27:27;9.60;1.00
1377;DHT22;682;52.502;13.488;2023-05-17T01:29:56;9.60;1.00
1377;DHT22;682;52.502;13.488;2023-05-17T01:32:24;9.60;1.00
1377;DHT22;682;52.502;13.488;2023-05-17T01:34:51;9.60;1.00
1377;DHT22;682;52.502;13.488;2023-05-17T01:37:18;9.60;1.00
1377;DHT22;682;52.502;13.488;2023-05-17T01:39:45;9.60;1.00
1377;DHT22;682;52.502;13.488;2023-05-17T01:42:17;9.60;1.00
1377;DHT22;682;52.502;13.488;2023-05-17T01:44:51;9.50;1.00
1377;DHT22;682;52.502;13.488;2023-05-17T01:47:29;9.50;1.00
1377;DHT22;682;52.502;13.488;2023-05-17T01:49:58;9.40;1.00
1377;DHT22;682;52.502;13.488;2023-05-17T01:52:30;9.40;1.00
1377;DHT22;682;52.502;13.488;2023-05-17T01:55:05;9.40;1.00
1377;DHT22;682;52.502;13.488;2023-05-17T01:57:35;9.40;1.00
1377;DHT22;682;52.502;13.488;2023-05-17T02:00:06;9.40;1.00
1377;DHT22;682;52.502;13.488;2023-05-17T02:02:34;9.30;1.00
1377;DHT22;682;52.502;13.488;2023-05-17T02:05:01;9.30;1.00
1377;DHT22;682;52.502;13.488;2023-05-17T02:07:28;9.30;1.00
1377;DHT22;682;52.502;13.488;2023-05-17T02:09:55;9.30;1.00
1377;DHT22;682;52.502;13.488;2023-05-17T02:12:22;9.30;1.00
1377;DHT22;682;52.502;13.488;2023-05-17T02:14:49;9.30;1.00
1377;DHT22;682;52.502;13.488;2023-05-17T02:17:18;9.30;1.00
1377;DHT22;682;52.502;13.488;2023-05-17T02:19:45;9.30;1.00
1377;DHT22;682;52.502;13.488;2023-05-17T02:22:11;9.30;1.00
1377;DHT22;682;52.502;13.488;2023-05-17T02:24:38;9.30;1.00
1377;DHT22;682;52.502;13.488;2023-05-17T02:27:06;9.30;1.00
1377;DHT22;682;52.502;13.488;2023-05-17T02:29:33;9.30;1.00
1377;DHT22;682;52.502;13.488;2023-05-17T02:32:00;9.30;1.00
1377;DHT22;682;52.502;13.488;2023-05-17T02:34:28;9.30;1.00
1377;DHT22;682;52.502;13.488;2023-05-17T02:36:55;9.30;1.00
1377;DHT22;682;52.502;13.488;2023-05-17T02:39:22;9.30;1.00
1377;DHT22;682;52.502;13.488;2023-05-17T02:41:50;9.30;1.00
1377;DHT22;682;52.502;13.488;2023-05-17T02:44:16;9.30;1.00
1377;DHT22;682;52.502;13.488;2023-05-17T02:46:43;9.30;1.00
1377;DHT22;682;52.502;13.488;2023-05-17T02:49:10;9.30;1.00
1377;DHT22;682;52.502;13.488;2023-05-17T02:51:39;9.40;1.00
1377;DHT22;682;52.502;13.488;2023-05-17T02:54:06;9.50;1.00
1377;DHT22;682;52.502;13.488;2023-05-17T02:56:33;9.60;1.00
1377;DHT22;682;52.502;13.488;2023-05-17T02:58:59;9.70;1.00
1377;DHT22;682;52.502;13.488;2023-05-17T03:01:27;9.70;1.00
1377;DHT22;682;52.502;13.488;2023-05-17T03:03:54;9.80;1.00
1377;DHT22;682;52.502;13.488;2023-05-17T03:06:20;9.90;1.00
1377;DHT22;682;52.502;13.488;2023-05-17T03:08:49;9.90;1.00
1377;DHT22;682;52.502;13.488;2023-05-17T03:11:16;9.90;1.00
1377;DHT22;682;52.502;13.488;2023-05-17T03:13:43;10.00;1.00
1377;DHT22;682;52.502;13.488;2023-05-17T03:16:11;10.00;1.00
1377;DHT22;682;52.502;13.488;2023-05-17T03:18:37;10.00;1.00
1377;DHT22;682;52.502;13.488;2023-05-17T03:21:05;10.00;1.00
1377;DHT22;682;52.502;13.488;2023-05-17T03:23:32;10.00;1.00
1377;DHT22;682;52.502;13.488;2023-05-17T03:26:00;10.00;1.00
1377;DHT22;682;52.502;13.488;2023-05-17T03:28:27;10.10;1.00
1377;DHT22;682;52.502;13.488;2023-05-17T03:30:54;10.00;1.00
1377;DHT22;682;52.502;13.488;2023-05-17T03:33:21;10.00;1.00
1377;DHT22;682;52.502;13.488;2023-05-17T03:35:48;10.00;1.00
1377;DHT22;682;52.502;13.488;2023-05-17T03:38:15;10.00;1.00
1377;DHT22;682;52.502;13.488;2023-05-17T03:40:42;10.00;1.00
1377;DHT22;682;52.502;13.488;2023-05-17T03:43:10;10.10;1.00
1377;DHT22;682;52.502;13.488;2023-05-17T03:45:37;10.10;1.00
1377;DHT22;682;52.502;13.488;2023-05-17T03:48:05;10.10;1.00
1377;DHT22;682;52.502;13.488;2023-05-17T03:50:32;10.10;1.00
1377;DHT22;682;52.502;13.488;2023-05-17T03:52:59;10.20;1.00
1377;DHT22;682;52.502;13.488;2023-05-17T03:55:26;10.20;1.00
1377;DHT22;682;52.502;13.488;2023-05-17T03:57:53;10.30;1.00
1377;DHT22;682;52.502;13.488;2023-05-17T04:00:21;10.20;1.00
1377;DHT22;682;52.502;13.488;2023-05-17T04:02:49;10.20;1.00
1377;DHT22;682;52.502;13.488;2023-05-17T04:05:17;10.20;1.00
1377;DHT22;682;52.502;13.488;2023-05-17T04:07:44;10.20;1.00
1377;DHT22;682;52.502;13.488;2023-05-17T04:10:11;10.10;1.00
1377;DHT22;682;52.502;13.488;2023-05-17T04:12:38;10.00;1.00
1377;DHT22;682;52.502;13.488;2023-05-17T04:15:06;9.90;1.00
1377;DHT22;682;52.502;13.488;2023-05-17T04:17:35;9.90;1.00
1377;DHT22;682;52.502;13.488;2023-05-17T04:20:02;9.80;1.00
1377;DHT22;682;52.502;13.488;2023-05-17T04:22:31;9.80;1.00
1377;DHT22;682;52.502;13.488;2023-05-17T04:24:57;9.70;1.00
1377;DHT22;682;52.502;13.488;2023-05-17T04:27:24;9.70;1.00
1377;DHT22;682;52.502;13.488;2023-05-17T04:29:51;9.70;1.00
1377;DHT22;682;52.502;13.488;2023-05-17T04:32:18;9.80;1.00
1377;DHT22;682;52.502;13.488;2023-05-17T04:34:47;9.80;1.00
1377;DHT22;682;52.502;13.488;2023-05-17T04:37:14;9.90;1.00
1377;DHT22;682;52.502;13.488;2023-05-17T04:39:41;10.00;1.00
1377;DHT22;682;52.502;13.488;2023-05-17T04:42:08;10.00;1.00
1377;DHT22;682;52.502;13.488;2023-05-17T04:44:35;10.10;1.00
1377;DHT22;682;52.502;13.488;2023-05-17T04:47:02;10.00;1.00
1377;DHT22;682;52.502;13.488;2023-05-17T04:49:29;10.00;1.00
1377;DHT22;682;52.502;13.488;2023-05-17T04:51:57;10.00;1.00
1377;DHT22;682;52.502;13.488;2023-05-17T04:54:25;10.10;1.00
1377;DHT22;682;52.502;13.488;2023-05-17T04:56:52;10.10;1.00
1377;DHT22;682;52.502;13.488;2023-05-17T04:59:19;10.10;1.00
1377;DHT22;682;52.502;13.488;2023-05-17T05:01:46;10.10;1.00
1377;DHT22;682;52.502;13.488;2023-05-17T05:04:16;10.10;1.00
1377;DHT22;682;52.502;13.488;2023-05-17T05:06:43;10.20;1.00
1377;DHT22;682;52.502;13.488;2023-05-17T05:09:11;10.10;1.00
1377;DHT22;682;52.502;13.488;2023-05-17T05:11:38;10.10;1.00
1377;DHT22;682;52.502;13.488;2023-05-17T05:14:05;10.10;1.00
1377;DHT22;682;52.502;13.488;2023-05-17T05:16:32;10.10;1.00
1377;DHT22;682;52.502;13.488;2023-05-17T05:18:59;10.20;1.00
1377;DHT22;682;52.502;13.488;2023-05-17T05:21:26;10.20;1.00
1377;DHT22;682;52.502;13.488;2023-05-17T05:23:53;10.20;1.00
1377;DHT22;682;52.502;13.488;2023-05-17T05:26:22;10.30;1.00
1377;DHT22;682;52.502;13.488;2023-05-17T05:28:49;10.40;1.00
1377;DHT22;682;52.502;13.488;2023-05-17T05:31:16;10.40;1.00
1377;DHT22;682;52.502;13.488;2023-05-17T05:33:43;10.40;1.00
1377;DHT22;682;52.502;13.488;2023-05-17T05:36:10;10.50;1.00
1377;DHT22;682;52.502;13.488;2023-05-17T05:38:37;10.50;1.00
1377;DHT22;682;52.502;13.488;2023-05-17T05:41:04;10.50;1.00
1377;DHT22;682;52.502;13.488;2023-05-17T05:43:32;10.50;1.00
1377;DHT22;682;52.502;13.488;2023-05-17T05:46:00;10.60;1.00
1377;DHT22;682;52.502;13.488;2023-05-17T05:48:29;10.60;1.00
1377;DHT22;682;52.502;13.488;2023-05-17T05:50:56;10.70;1.00
1377;DHT22;682;52.502;13.488;2023-05-17T05:53:23;10.90;1.00
1377;DHT22;682;52.502;13.488;2023-05-17T05:55:51;11.10;1.00
1377;DHT22;682;52.502;13.488;2023-05-17T05:58:18;11.30;1.00
1377;DHT22;682;52.502;13.488;2023-05-17T06:00:46;11.40;1.00
1377;DHT22;682;52.502;13.488;2023-05-17T06:03:13;11.50;1.00
1377;DHT22;682;52.502;13.488;2023-05-17T06:05:41;11.50;1.00
1377;DHT22;682;52.502;13.488;2023-05-17T06:08:08;11.60;1.00
1377;DHT22;682;52.502;13.488;2023-05-17T06:10:35;11.80;1.00
1377;DHT22;682;52.502;13.488;2023-05-17T06:13:02;11.90;1.00
1377;DHT22;682;52.502;13.488;2023-05-17T06:15:30;11.80;1.00
1377;DHT22;682;52.502;13.488;2023-05-17T06:17:59;11.80;1.00
1377;DHT22;682;52.502;13.488;2023-05-17T06:20:28;11.70;1.00
1377;DHT22;682;52.502;13.488;2023-05-17T06:22:55;11.70;1.00
1377;DHT22;682;52.502;13.488;2023-05-17T06:25:22;11.80;1.00
1377;DHT22;682;52.502;13.488;2023-05-17T06:27:49;11.60;1.00
1377;DHT22;682;52.502;13.488;2023-05-17T06:30:16;11.50;1.00
1377;DHT22;682;52.502;13.488;2023-05-17T06:32:43;11.50;1.00
1377;DHT22;682;52.502;13.488;2023-05-17T06:35:11;11.50;1.00
1377;DHT22;682;52.502;13.488;2023-05-17T06:37:38;11.60;1.00
1377;DHT22;682;52.502;13.488;2023-05-17T06:40:07;11.50;1.00
1377;DHT22;682;52.502;13.488;2023-05-17T06:42:35;11.50;1.00
1377;DHT22;682;52.502;13.488;2023-05-17T06:45:02;11.80;1.00
1377;DHT22;682;52.502;13.488;2023-05-17T06:47:29;12.00;1.00
1377;DHT22;682;52.502;13.488;2023-05-17T06:49:57;12.10;1.00
1377;DHT22;682;52.502;13.488;2023-05-17T06:52:26;11.90;1.00
1377;DHT22;682;52.502;13.488;2023-05-17T06:54:53;11.70;1.00
1377;DHT22;682;52.502;13.488;2023-05-17T06:57:20;11.50;1.00
1377;DHT22;682;52.502;13.488;2023-05-17T06:59:47;11.40;1.00
1377;DHT22;682;52.502;13.488;2023-05-17T07:02:14;11.30;1.00
1377;DHT22;682;52.502;13.488;2023-05-17T07:04:41;11.40;1.00
1377;DHT22;682;52.502;13.488;2023-05-17T07:07:08;11.50;1.00
1377;DHT22;682;52.502;13.488;2023-05-17T07:09:37;11.70;1.00
1377;DHT22;682;52.502;13.488;2023-05-17T07:12:05;11.80;1.00
1377;DHT22;682;52.502;13.488;2023-05-17T07:14:32;11.80;1.00
1377;DHT22;682;52.502;13.488;2023-05-17T07:16:59;11.80;1.00
1377;DHT22;682;52.502;13.488;2023-05-17T07:19:26;11.70;1.00
1377;DHT22;682;52.502;13.488;2023-05-17T07:21:53;11.70;1.00
1377;DHT22;682;52.502;13.488;2023-05-17T07:24:20;11.70;1.00
1377;DHT22;682;52.502;13.488;2023-05-17T07:26:49;11.70;1.00
1377;DHT22;682;52.502;13.488;2023-05-17T07:29:16;11.70;1.00
1377;DHT22;682;52.502;13.488;2023-05-17T07:31:43;11.80;1.00
1377;DHT22;682;52.502;13.488;2023-05-17T07:34:10;12.00;1.00
1377;DHT22;682;52.502;13.488;2023-05-17T07:36:37;12.00;1.00
1377;DHT22;682;52.502;13.488;2023-05-17T07:39:04;12.10;1.00
1377;DHT22;682;52.502;13.488;2023-05-17T07:41:31;12.20;1.00
1377;DHT22;682;52.502;13.488;2023-05-17T07:44:00;12.50;1.00
1377;DHT22;682;52.502;13.488;2023-05-17T07:46:27;12.70;1.00
1377;DHT22;682;52.502;13.488;2023-05-17T07:48:54;13.10;1.00
1377;DHT22;682;52.502;13.488;2023-05-17T07:51:21;13.70;1.00
1377;DHT22;682;52.502;13.488;2023-05-17T07:53:48;14.30;1.00
1377;DHT22;682;52.502;13.488;2023-05-17T07:56:15;14.80;1.00
1377;DHT22;682;52.502;13.488;2023-05-17T07:58:42;15.10;1.00
1377;DHT22;682;52.502;13.488;2023-05-17T08:01:10;14.90;1.00
1377;DHT22;682;52.502;13.488;2023-05-17T08:03:37;14.50;1.00
1377;DHT22;682;52.502;13.488;2023-05-17T08:06:04;14.10;1.00
1377;DHT22;682;52.502;13.488;2023-05-17T08:08:31;13.70;1.00
1377;DHT22;682;52.502;13.488;2023-05-17T08:10:58;13.70;1.00
1377;DHT22;682;52.502;13.488;2023-05-17T08:13:25;13.60;1.00
1377;DHT22;682;52.502;13.488;2023-05-17T08:15:52;13.70;1.00
1377;DHT22;682;52.502;13.488;2023-05-17T08:18:20;13.90;1.00
1377;DHT22;682;52.502;13.488;2023-05-17T08:20:47;13.90;1.00
1377;DHT22;682;52.502;13.488;2023-05-17T08:23:14;13.70;1.00
1377;DHT22;682;52.502;13.488;2023-05-17T08:25:41;13.60;1.00
1377;DHT22;682;52.502;13.488;2023-05-17T08:28:08;13.60;1.00
1377;DHT22;682;52.502;13.488;2023-05-17T08:30:35;13.60;1.00
1377;DHT22;682;52.502;13.488;2023-05-17T08:33:02;13.50;1.00
1377;DHT22;682;52.502;13.488;2023-05-17T08:35:30;13.60;1.00
1377;DHT22;682;52.502;13.488;2023-05-17T08:37:57;13.80;1.00
1377;DHT22;682;52.502;13.488;2023-05-17T08:40:24;14.10;1.00
1377;DHT22;682;52.502;13.488;2023-05-17T08:42:52;14.30;1.00
1377;DHT22;682;52.502;13.488;2023-05-17T08:45:20;14.40;1.00
1377;DHT22;682;52.502;13.488;2023-05-17T08:47:48;14.60;1.00
1377;DHT22;682;52.502;13.488;2023-05-17T08:50:18;14.70;1.00
1377;DHT22;682;52.502;13.488;2023-05-17T08:52:48;14.80;1.00
1377;DHT22;682;52.502;13.488;2023-05-17T08:55:15;14.80;1.00
1377;DHT22;682;52.502;13.488;2023-05-17T08:57:43;14.70;1.00
1377;DHT22;682;52.502;13.488;2023-05-17T09:00:14;14.50;1.00
1377;DHT22;682;52.502;13.488;2023-05-17T09:02:43;14.60;1.00
1377;DHT22;682;52.502;13.488;2023-05-17T09:05:10;14.70;1.00
1377;DHT22;682;52.502;13.488;2023-05-17T09:07:38;14.80;1.00
1377;DHT22;682;52.502;13.488;2023-05-17T09:10:09;14.80;1.00
1377;DHT22;682;52.502;13.488;2023-05-17T09:12:38;14.90;1.00
1377;DHT22;682;52.502;13.488;2023-05-17T09:15:13;15.00;1.00
1377;DHT22;682;52.502;13.488;2023-05-17T09:17:40;14.80;1.00
1377;DHT22;682;52.502;13.488;2023-05-17T09:20:07;14.60;1.00
1377;DHT22;682;52.502;13.488;2023-05-17T09:22:35;14.80;1.00
1377;DHT22;682;52.502;13.488;2023-05-17T09:25:03;15.30;1.00
1377;DHT22;682;52.502;13.488;2023-05-17T09:27:31;16.10;1.00
1377;DHT22;682;52.502;13.488;2023-05-17T09:29:58;17.10;1.00
1377;DHT22;682;52.502;13.488;2023-05-17T09:32:25;18.40;1.00
1377;DHT22;682;52.502;13.488;2023-05-17T09:34:53;20.00;1.00
1377;DHT22;682;52.502;13.488;2023-05-17T09:37:22;21.40;1.00
1377;DHT22;682;52.502;13.488;2023-05-17T09:39:50;22.70;1.00
1377;DHT22;682;52.502;13.488;2023-05-17T09:42:18;23.50;1.00
1377;DHT22;682;52.502;13.488;2023-05-17T09:44:51;24.10;1.00
1377;DHT22;682;52.502;13.488;2023-05-17T09:47:24;23.80;1.00
1377;DHT22;682;52.502;13.488;2023-05-17T09:49:51;24.00;1.00
1377;DHT22;682;52.502;13.488;2023-05-17T09:52:18;24.50;1.00
1377;DHT22;682;52.502;13.488;2023-05-17T09:54:52;25.00;1.00
1377;DHT22;682;52.502;13.488;2023-05-17T09:57:20;25.30;1.00
1377;DHT22;682;52.502;13.488;2023-05-17T09:59:47;25.80;1.00
1377;DHT22;682;52.502;13.488;2023-05-17T10:02:19;26.10;1.00
1377;DHT22;682;52.502;13.488;2023-05-17T10:04:49;26.30;1.00
1377;DHT22;682;52.502;13.488;2023-05-17T10:07:18;26.10;1.00
1377;DHT22;682;52.502;13.488;2023-05-17T10:09:46;25.90;1.00
1377;DHT22;682;52.502;13.488;2023-05-17T10:12:17;26.20;1.00
1377;DHT22;682;52.502;13.488;2023-05-17T10:14:45;26.20;1.00
1377;DHT22;682;52.502;13.488;2023-05-17T10:17:13;26.10;1.00
1377;DHT22;682;52.502;13.488;2023-05-17T10:19:43;26.50;1.00
1377;DHT22;682;52.502;13.488;2023-05-17T10:22:11;26.90;1.00
1377;DHT22;682;52.502;13.488;2023-05-17T10:24:39;27.10;1.00
1377;DHT22;682;52.502;13.488;2023-05-17T10:27:06;27.30;1.00
1377;DHT22;682;52.502;13.488;2023-05-17T10:29:33;27.10;1.00
1377;DHT22;682;52.502;13.488;2023-05-17T10:32:03;27.10;1.00
1377;DHT22;682;52.502;13.488;2023-05-17T10:34:33;26.90;1.00
1377;DHT22;682;52.502;13.488;2023-05-17T10:37:02;26.80;1.00
1377;DHT22;682;52.502;13.488;2023-05-17T10:39:30;26.60;1.00
1377;DHT22;682;52.502;13.488;2023-05-17T10:42:01;26.70;1.00
1377;DHT22;682;52.502;13.488;2023-05-17T10:44:31;26.90;1.00
1377;DHT22;682;52.502;13.488;2023-05-17T10:46:58;27.40;1.00
1377;DHT22;682;52.502;13.488;2023-05-17T10:49:29;28.00;1.00
1377;DHT22;682;52.502;13.488;2023-05-17T10:51:57;28.30;1.00
1377;DHT22;682;52.502;13.488;2023-05-17T10:54:35;28.60;1.00
1377;DHT22;682;52.502;13.488;2023-05-17T10:57:06;28.60;1.00
1377;DHT22;682;52.502;13.488;2023-05-17T10:59:34;29.10;1.00
1377;DHT22;682;52.502;13.488;2023-05-17T11:02:02;29.80;1.00
1377;DHT22;682;52.502;13.488;2023-05-17T11:04:35;30.20;1.00
1377;DHT22;682;52.502;13.488;2023-05-17T11:07:26;30.50;1.00
1377;DHT22;682;52.502;13.488;2023-05-17T11:10:03;30.00;1.00
1377;DHT22;682;52.502;13.488;2023-05-17T11:12:33;29.50;1.00
1377;DHT22;682;52.502;13.488;2023-05-17T11:15:06;29.90;1.00
1377;DHT22;682;52.502;13.488;2023-05-17T11:17:35;30.40;1.00
1377;DHT22;682;52.502;13.488;2023-05-17T11:20:04;30.80;1.00
1377;DHT22;682;52.502;13.488;2023-05-17T11:22:37;31.30;1.00
1377;DHT22;682;52.502;13.488;2023-05-17T11:25:10;31.40;1.00
1377;DHT22;682;52.502;13.488;2023-05-17T11:27:43;31.60;1.00
1377;DHT22;682;52.502;13.488;2023-05-17T11:30:19;31.90;1.00
1377;DHT22;682;52.502;13.488;2023-05-17T11:32:50;32.10;1.00
1377;DHT22;682;52.502;13.488;2023-05-17T11:35:25;32.10;1.00
1377;DHT22;682;52.502;13.488;2023-05-17T11:38:10;32.00;1.00
1377;DHT22;682;52.502;13.488;2023-05-17T11:40:40;31.70;1.00
1377;DHT22;682;52.502;13.488;2023-05-17T11:43:11;31.90;1.00
1377;DHT22;682;52.502;13.488;2023-05-17T11:45:44;32.30;1.00
1377;DHT22;682;52.502;13.488;2023-05-17T11:48:12;32.40;1.00
1377;DHT22;682;52.502;13.488;2023-05-17T11:50:40;32.40;1.00
1377;DHT22;682;52.502;13.488;2023-05-17T11:53:07;32.40;1.00
1377;DHT22;682;52.502;13.488;2023-05-17T11:55:37;32.00;1.00
1377;DHT22;682;52.502;13.488;2023-05-17T11:58:09;30.90;1.00
1377;DHT22;682;52.502;13.488;2023-05-17T12:00:36;29.50;1.00
1377;DHT22;682;52.502;13.488;2023-05-17T12:03:23;29.80;1.00
1377;DHT22;682;52.502;13.488;2023-05-17T12:06:00;30.10;1.00
1377;DHT22;682;52.502;13.488;2023-05-17T12:08:28;29.80;1.00
1377;DHT22;682;52.502;13.488;2023-05-17T12:10:55;29.90;1.00
1377;DHT22;682;52.502;13.488;2023-05-17T12:13:23;30.40;1.00
1377;DHT22;682;52.502;13.488;2023-05-17T12:15:55;30.80;1.00
1377;DHT22;682;52.502;13.488;2023-05-17T12:18:23;31.50;1.00
1377;DHT22;682;52.502;13.488;2023-05-17T12:20:54;32.30;1.00
1377;DHT22;682;52.502;13.488;2023-05-17T12:23:29;31.80;1.00
1377;DHT22;682;52.502;13.488;2023-05-17T12:26:06;31.90;1.00
1377;DHT22;682;52.502;13.488;2023-05-17T12:28:36;32.40;1.00
1377;DHT22;682;52.502;13.488;2023-05-17T12:31:09;31.90;1.00
1377;DHT22;682;52.502;13.488;2023-05-17T12:33:38;31.80;1.00
1377;DHT22;682;52.502;13.488;2023-05-17T12:36:07;32.30;1.00
1377;DHT22;682;52.502;13.488;2023-05-17T12:38:36;32.40;1.00
1377;DHT22;682;52.502;13.488;2023-05-17T12:41:06;32.70;1.00
1377;DHT22;682;52.502;13.488;2023-05-17T12:43:37;33.10;1.00
1377;DHT22;682;52.502;13.488;2023-05-17T12:46:08;32.60;1.00
1377;DHT22;682;52.502;13.488;2023-05-17T12:48:36;32.00;1.00
1377;DHT22;682;52.502;13.488;2023-05-17T12:51:08;31.70;1.00
1377;DHT22;682;52.502;13.488;2023-05-17T12:53:36;31.90;1.00
1377;DHT22;682;52.502;13.488;2023-05-17T12:56:04;32.40;1.00
1377;DHT22;682;52.502;13.488;2023-05-17T12:58:32;33.00;1.00
1377;DHT22;682;52.502;13.488;2023-05-17T13:01:01;33.30;1.00
1377;DHT22;682;52.502;13.488;2023-05-17T13:03:29;33.60;1.00
1377;DHT22;682;52.502;13.488;2023-05-17T13:06:01;33.50;1.00
1377;DHT22;682;52.502;13.488;2023-05-17T13:08:29;33.50;1.00
1377;DHT22;682;52.502;13.488;2023-05-17T13:11:10;33.90;1.00
1377;DHT22;682;52.502;13.488;2023-05-17T13:13:38;33.50;1.00
1377;DHT22;682;52.502;13.488;2023-05-17T13:16:07;33.50;1.00
1377;DHT22;682;52.502;13.488;2023-05-17T13:18:47;33.80;1.00
1377;DHT22;682;52.502;13.488;2023-05-17T13:21:16;33.80;1.00
1377;DHT22;682;52.502;13.488;2023-05-17T13:23:43;33.70;1.00
1377;DHT22;682;52.502;13.488;2023-05-17T13:26:10;33.60;1.00
1377;DHT22;682;52.502;13.488;2023-05-17T13:28:38;33.40;1.00
1377;DHT22;682;52.502;13.488;2023-05-17T13:31:08;33.00;1.00
1377;DHT22;682;52.502;13.488;2023-05-17T13:33:35;33.10;1.00
1377;DHT22;682;52.502;13.488;2023-05-17T13:36:02;32.20;1.00
1377;DHT22;682;52.502;13.488;2023-05-17T13:38:31;32.40;1.00
1377;DHT22;682;52.502;13.488;2023-05-17T13:40:58;32.10;1.00
1377;DHT22;682;52.502;13.488;2023-05-17T13:43:25;32.20;1.00
1377;DHT22;682;52.502;13.488;2023-05-17T13:45:52;32.40;1.00
1377;DHT22;682;52.502;13.488;2023-05-17T13:48:24;32.30;1.00
1377;DHT22;682;52.502;13.488;2023-05-17T13:50:51;32.00;1.00
1377;DHT22;682;52.502;13.488;2023-05-17T13:53:18;31.30;1.00
1377;DHT22;682;52.502;13.488;2023-05-17T13:55:45;31.30;1.00
1377;DHT22;682;52.502;13.488;2023-05-17T13:58:13;31.10;1.00
1377;DHT22;682;52.502;13.488;2023-05-17T14:00:41;30.50;1.00
1377;DHT22;682;52.502;13.488;2023-05-17T14:03:09;30.00;1.00
1377;DHT22;682;52.502;13.488;2023-05-17T14:05:38;30.30;1.00
1377;DHT22;682;52.502;13.488;2023-05-17T14:08:05;30.50;1.00
1377;DHT22;682;52.502;13.488;2023-05-17T14:10:33;30.90;1.00
1377;DHT22;682;52.502;13.488;2023-05-17T14:13:00;30.70;1.00
1377;DHT22;682;52.502;13.488;2023-05-17T14:15:27;29.90;1.00
1377;DHT22;682;52.502;13.488;2023-05-17T14:17:54;29.80;1.00
1377;DHT22;682;52.502;13.488;2023-05-17T14:20:22;30.10;1.00
1377;DHT22;682;52.502;13.488;2023-05-17T14:22:51;30.70;1.00
1377;DHT22;682;52.502;13.488;2023-05-17T14:25:18;31.20;1.00
1377;DHT22;682;52.502;13.488;2023-05-17T14:27:45;31.20;1.00
1377;DHT22;682;52.502;13.488;2023-05-17T14:30:13;31.50;1.00
1377;DHT22;682;52.502;13.488;2023-05-17T14:32:40;31.80;1.00
1377;DHT22;682;52.502;13.488;2023-05-17T14:35:07;31.80;1.00
1377;DHT22;682;52.502;13.488;2023-05-17T14:37:35;31.20;1.00
1377;DHT22;682;52.502;13.488;2023-05-17T14:40:04;30.60;1.00
1377;DHT22;682;52.502;13.488;2023-05-17T14:42:31;30.50;1.00
1377;DHT22;682;52.502;13.488;2023-05-17T14:44:58;30.60;1.00
1377;DHT22;682;52.502;13.488;2023-05-17T14:47:25;30.60;1.00
1377;DHT22;682;52.502;13.488;2023-05-17T14:49:54;30.30;1.00
1377;DHT22;682;52.502;13.488;2023-05-17T14:52:21;29.70;1.00
1377;DHT22;682;52.502;13.488;2023-05-17T14:54:48;28.60;1.00
1377;DHT22;682;52.502;13.488;2023-05-17T14:57:17;27.30;1.00
1377;DHT22;682;52.502;13.488;2023-05-17T14:59:46;26.70;1.00
1377;DHT22;682;52.502;13.488;2023-05-17T15:02:13;26.30;1.00
1377;DHT22;682;52.502;13.488;2023-05-17T15:04:40;26.50;1.00
1377;DHT22;682;52.502;13.488;2023-05-17T15:07:06;27.50;1.00
1377;DHT22;682;52.502;13.488;2023-05-17T15:09:38;28.50;1.00
1377;DHT22;682;52.502;13.488;2023-05-17T15:12:07;29.00;1.00
1377;DHT22;682;52.502;13.488;2023-05-17T15:14:35;29.20;1.00
1377;DHT22;682;52.502;13.488;2023-05-17T15:17:02;28.00;1.00
1377;DHT22;682;52.502;13.488;2023-05-17T15:19:31;26.50;1.00
1377;DHT22;682;52.502;13.488;2023-05-17T15:21:58;25.50;1.00
1377;DHT22;682;52.502;13.488;2023-05-17T15:24:27;25.30;1.00
1377;DHT22;682;52.502;13.488;2023-05-17T15:26:54;25.90;1.00
1377;DHT22;682;52.502;13.488;2023-05-17T15:29:20;26.20;1.00
1377;DHT22;682;52.502;13.488;2023-05-17T15:31:49;25.50;1.00
1377;DHT22;682;52.502;13.488;2023-05-17T15:34:16;25.10;1.00
1377;DHT22;682;52.502;13.488;2023-05-17T15:36:43;25.00;1.00
1377;DHT22;682;52.502;13.488;2023-05-17T15:39:10;25.90;1.00
1377;DHT22;682;52.502;13.488;2023-05-17T15:41:37;26.30;1.00
1377;DHT22;682;52.502;13.488;2023-05-17T15:44:05;25.80;1.00
1377;DHT22;682;52.502;13.488;2023-05-17T15:46:33;25.20;1.00
1377;DHT22;682;52.502;13.488;2023-05-17T15:49:02;24.40;1.00
1377;DHT22;682;52.502;13.488;2023-05-17T15:51:28;23.50;1.00
1377;DHT22;682;52.502;13.488;2023-05-17T15:53:55;22.80;1.00
1377;DHT22;682;52.502;13.488;2023-05-17T15:56:23;23.10;1.00
1377;DHT22;682;52.502;13.488;2023-05-17T15:58:50;24.00;1.00
1377;DHT22;682;52.502;13.488;2023-05-17T16:01:17;25.20;1.00
1377;DHT22;682;52.502;13.488;2023-05-17T16:03:44;25.90;1.00
1377;DHT22;682;52.502;13.488;2023-05-17T16:06:13;26.00;1.00
1377;DHT22;682;52.502;13.488;2023-05-17T16:08:40;26.40;1.00
1377;DHT22;682;52.502;13.488;2023-05-17T16:11:07;27.00;1.00
1377;DHT22;682;52.502;13.488;2023-05-17T16:13:34;27.60;1.00
1377;DHT22;682;52.502;13.488;2023-05-17T16:16:01;27.90;1.00
1377;DHT22;682;52.502;13.488;2023-05-17T16:18:28;28.20;1.00
1377;DHT22;682;52.502;13.488;2023-05-17T16:20:58;28.00;1.00
1377;DHT22;682;52.502;13.488;2023-05-17T16:23:27;28.10;1.00
1377;DHT22;682;52.502;13.488;2023-05-17T16:25:54;28.20;1.00
1377;DHT22;682;52.502;13.488;2023-05-17T16:28:21;28.10;1.00